createdAt,value
2024-03-03T00:01:02.584Z,10.80
2024-03-03T00:03:30.230Z,10.70
2024-03-03T00:05:58.633Z,10.70
2024-03-03T00:08:25.278Z,10.70
2024-03-03T00:10:53.321Z,10.70
2024-03-03T00:13:20.179Z,10.60
2024-03-03T00:15:46.843Z,10.50
2024-03-03T00:18:13.456Z,10.60
2024-03-03T00:20:40.247Z,10.60
2024-03-03T00:23:07.272Z,11.00
2024-03-03T00:25:33.844Z,10.90
2024-03-03T00:28:01.210Z,11.00
2024-03-03T00:30:27.774Z,11.00
2024-03-03T00:32:54.691Z,10.90
2024-03-03T00:35:21.572Z,10.80
2024-03-03T00:37:48.079Z,10.90
2024-03-03T00:40:14.885Z,10.90
2024-03-03T00:42:41.972Z,10.80
2024-03-03T00:45:09.362Z,10.70
2024-03-03T00:47:38.687Z,10.70
2024-03-03T00:50:05.969Z,10.60
2024-03-03T00:52:32.527Z,10.90
2024-03-03T00:55:00.020Z,10.80
2024-03-03T00:57:26.943Z,10.70
2024-03-03T00:59:53.454Z,10.60
2024-03-03T01:02:20.083Z,10.50
2024-03-03T01:04:46.850Z,10.40
2024-03-03T01:07:14.040Z,10.30
2024-03-03T01:09:40.680Z,10.40
2024-03-03T01:12:07.920Z,10.40
2024-03-03T01:14:34.586Z,10.20
2024-03-03T01:17:01.187Z,10.30
2024-03-03T01:19:28.207Z,10.20
2024-03-03T01:21:55.532Z,10.00
2024-03-03T01:24:22.148Z,9.80
2024-03-03T01:26:48.900Z,9.70
2024-03-03T01:29:16.691Z,9.80
2024-03-03T01:31:44.729Z,9.70
2024-03-03T01:34:11.554Z,9.70
2024-03-03T01:36:38.268Z,9.70
2024-03-03T01:39:06.719Z,9.70
2024-03-03T01:41:33.811Z,9.90
2024-03-03T01:44:00.683Z,9.70
2024-03-03T01:46:28.141Z,9.50
2024-03-03T01:48:55.790Z,9.30
2024-03-03T01:51:24.563Z,9.10
2024-03-03T01:53:53.442Z,9.20
2024-03-03T01:56:23.109Z,9.40
2024-03-03T01:58:50.415Z,9.50
2024-03-03T02:01:17.047Z,9.50
2024-03-03T02:03:44.220Z,9.50
2024-03-03T02:06:11.178Z,9.60
2024-03-03T02:08:37.811Z,9.60
2024-03-03T02:11:05.156Z,9.50
2024-03-03T02:13:31.768Z,9.20
2024-03-03T02:15:58.382Z,9.00
2024-03-03T02:18:25.425Z,9.00
2024-03-03T02:20:52.267Z,9.20
2024-03-03T02:23:19.298Z,9.40
2024-03-03T02:25:45.999Z,9.30
2024-03-03T02:28:12.778Z,9.10
2024-03-03T02:30:39.650Z,9.00
2024-03-03T02:33:07.047Z,9.00
2024-03-03T02:35:33.970Z,9.00
2024-03-03T02:38:00.876Z,9.20
2024-03-03T02:40:27.431Z,9.00
2024-03-03T02:42:53.995Z,8.90
2024-03-03T02:45:20.783Z,9.00
2024-03-03T02:47:49.222Z,9.00
2024-03-03T02:50:15.898Z,9.00
2024-03-03T02:52:42.673Z,9.00
2024-03-03T02:55:10.306Z,9.10
2024-03-03T02:57:38.785Z,9.00
2024-03-03T03:00:12.987Z,9.00
2024-03-03T03:02:39.676Z,8.80
2024-03-03T03:05:06.350Z,8.70
2024-03-03T03:07:33.369Z,8.70
2024-03-03T03:09:59.913Z,8.70
2024-03-03T03:12:26.569Z,8.70
2024-03-03T03:14:53.669Z,8.50
2024-03-03T03:17:20.185Z,8.30
2024-03-03T03:19:46.989Z,8.20
2024-03-03T03:22:14.847Z,8.10
2024-03-03T03:24:41.414Z,8.10
2024-03-03T03:27:07.944Z,8.10
2024-03-03T03:29:35.138Z,8.00
2024-03-03T03:32:01.910Z,8.20
2024-03-03T03:34:28.586Z,8.10
2024-03-03T03:36:56.658Z,8.00
2024-03-03T03:39:23.978Z,7.90
2024-03-03T03:41:51.393Z,7.80
2024-03-03T03:44:20.049Z,7.60
2024-03-03T03:46:46.821Z,7.50
2024-03-03T03:49:15.523Z,7.60
2024-03-03T03:51:42.915Z,7.70
2024-03-03T03:54:09.526Z,7.60
2024-03-03T03:56:36.979Z,7.60
2024-03-03T03:59:04.593Z,7.70
2024-03-03T04:01:31.447Z,7.70
2024-03-03T04:03:59.239Z,7.60
2024-03-03T04:06:29.154Z,7.70
2024-03-03T04:08:56.029Z,7.70
2024-03-03T04:11:23.347Z,7.70
2024-03-03T04:13:53.669Z,7.70
2024-03-03T04:16:20.378Z,7.80
2024-03-03T04:18:47.397Z,7.80
2024-03-03T04:21:14.840Z,7.80
2024-03-03T04:23:41.879Z,7.90
2024-03-03T04:26:08.796Z,7.90
2024-03-03T04:28:35.663Z,7.90
2024-03-03T04:31:09.552Z,7.90
2024-03-03T04:33:37.341Z,7.80
2024-03-03T04:36:10.094Z,7.80
2024-03-03T04:38:41.064Z,7.70
2024-03-03T04:41:20.773Z,7.90
2024-03-03T04:43:47.904Z,7.80
2024-03-03T04:46:14.934Z,7.80
2024-03-03T04:48:42.398Z,7.70
2024-03-03T04:51:09.419Z,8.10
2024-03-03T04:53:36.657Z,8.20
2024-03-03T04:56:03.354Z,8.10
2024-03-03T04:58:30.211Z,8.10
2024-03-03T05:00:57.022Z,8.20
2024-03-03T05:03:25.158Z,8.20
2024-03-03T05:05:52.274Z,8.30
2024-03-03T05:08:19.264Z,8.50
2024-03-03T05:10:46.202Z,8.40
2024-03-03T05:13:13.612Z,8.40
2024-03-03T05:15:40.530Z,8.50
2024-03-03T05:18:08.067Z,8.50
2024-03-03T05:20:35.019Z,8.40
2024-03-03T05:23:01.555Z,8.40
2024-03-03T05:25:28.186Z,8.40
2024-03-03T05:27:55.261Z,8.40
2024-03-03T05:30:22.513Z,8.50
2024-03-03T05:32:49.116Z,8.60
2024-03-03T05:35:16.016Z,8.80
2024-03-03T05:37:42.669Z,8.70
2024-03-03T05:40:10.091Z,8.70
2024-03-03T05:42:37.202Z,8.60
2024-03-03T05:45:04.001Z,8.50
2024-03-03T05:47:30.787Z,8.40
2024-03-03T05:49:57.623Z,8.40
2024-03-03T05:52:24.130Z,8.40
2024-03-03T05:54:50.985Z,8.30
2024-03-03T05:57:17.812Z,8.30
2024-03-03T05:59:44.350Z,8.20
2024-03-03T06:02:10.964Z,8.20
2024-03-03T06:04:38.302Z,8.10
2024-03-03T06:07:07.002Z,8.10
2024-03-03T06:09:33.761Z,8.00
2024-03-03T06:12:01.432Z,8.00
2024-03-03T06:14:27.980Z,7.90
2024-03-03T06:16:54.543Z,7.90
2024-03-03T06:19:21.594Z,7.80
2024-03-03T06:21:51.870Z,8.00
2024-03-03T06:24:19.250Z,8.00
2024-03-03T06:26:46.855Z,8.10
2024-03-03T06:29:13.513Z,8.00
2024-03-03T06:31:45.824Z,8.00
2024-03-03T06:34:13.046Z,7.90
2024-03-03T06:36:39.859Z,7.90
2024-03-03T06:39:06.639Z,7.90
2024-03-03T06:41:33.457Z,7.90
2024-03-03T06:44:00.086Z,7.90
2024-03-03T06:46:26.760Z,7.90
2024-03-03T06:48:53.807Z,7.90
2024-03-03T06:51:20.462Z,8.00
2024-03-03T06:53:46.993Z,8.10
2024-03-03T06:56:17.933Z,8.30
2024-03-03T06:58:46.015Z,8.60
2024-03-03T07:01:13.935Z,8.80
2024-03-03T07:03:59.542Z,9.00
2024-03-03T07:06:26.128Z,9.00
2024-03-03T07:08:53.015Z,9.30
2024-03-03T07:11:19.709Z,9.40
2024-03-03T07:13:46.349Z,9.50
2024-03-03T07:16:13.201Z,9.70
2024-03-03T07:18:40.137Z,9.70
2024-03-03T07:21:07.561Z,9.80
2024-03-03T07:23:34.302Z,9.90
2024-03-03T07:26:00.899Z,10.00
2024-03-03T07:28:27.720Z,10.20
2024-03-03T07:30:55.299Z,10.40
2024-03-03T07:33:22.179Z,10.50
2024-03-03T07:35:48.792Z,10.70
2024-03-03T07:38:16.880Z,10.80
2024-03-03T07:40:45.620Z,10.90
2024-03-03T07:43:13.145Z,11.00
2024-03-03T07:45:40.661Z,11.10
2024-03-03T07:48:07.858Z,11.30
2024-03-03T07:50:34.733Z,11.30
2024-03-03T07:53:01.969Z,11.40
2024-03-03T07:55:30.682Z,11.60
2024-03-03T07:57:57.702Z,11.80
2024-03-03T08:00:25.594Z,11.90
2024-03-03T08:02:52.226Z,12.00
2024-03-03T08:05:18.784Z,12.10
2024-03-03T08:07:45.938Z,12.20
2024-03-03T08:10:12.813Z,12.60
2024-03-03T08:12:39.628Z,12.70
2024-03-03T08:15:07.615Z,12.50
2024-03-03T08:17:34.261Z,12.90
2024-03-03T08:20:01.756Z,13.00
2024-03-03T08:22:28.788Z,12.70
2024-03-03T08:24:55.727Z,12.80
2024-03-03T08:27:22.882Z,13.20
2024-03-03T08:29:50.212Z,13.40
2024-03-03T08:32:17.022Z,13.40
2024-03-03T08:34:43.612Z,13.40
2024-03-03T08:37:10.538Z,13.10
2024-03-03T08:39:37.136Z,13.00
2024-03-03T08:42:04.168Z,13.30
2024-03-03T08:44:32.332Z,13.10
2024-03-03T08:46:59.767Z,12.90
2024-03-03T08:49:26.940Z,12.90
2024-03-03T08:51:54.196Z,13.00
2024-03-03T08:54:21.237Z,12.90
2024-03-03T08:56:47.794Z,12.60
2024-03-03T08:59:14.917Z,12.50
2024-03-03T09:01:41.860Z,12.50
2024-03-03T09:04:09.998Z,12.60
2024-03-03T09:06:38.548Z,12.60
2024-03-03T09:09:05.376Z,12.60
2024-03-03T09:11:33.680Z,12.60
2024-03-03T09:14:00.735Z,12.80
2024-03-03T09:16:27.359Z,12.90
2024-03-03T09:18:55.438Z,13.10
2024-03-03T09:21:22.642Z,13.40
2024-03-03T09:23:49.508Z,13.60
2024-03-03T09:26:16.332Z,13.80
2024-03-03T09:28:43.190Z,14.00
2024-03-03T09:31:10.148Z,14.10
2024-03-03T09:33:36.903Z,14.20
2024-03-03T09:36:04.164Z,14.50
2024-03-03T09:38:30.681Z,14.40
2024-03-03T09:40:57.766Z,14.50
2024-03-03T09:43:28.777Z,14.60
2024-03-03T09:45:55.720Z,14.70
2024-03-03T09:48:24.142Z,14.90
2024-03-03T09:50:53.172Z,14.80
2024-03-03T09:53:20.220Z,14.60
2024-03-03T09:55:46.788Z,14.50
2024-03-03T09:58:14.006Z,14.60
2024-03-03T10:00:41.255Z,14.70
2024-03-03T10:03:08.239Z,14.80
2024-03-03T10:05:40.870Z,14.70
2024-03-03T10:08:11.161Z,14.90
2024-03-03T10:10:47.350Z,15.00
2024-03-03T10:13:16.597Z,14.30
2024-03-03T10:15:46.277Z,14.90
2024-03-03T10:18:13.235Z,14.60
2024-03-03T10:20:40.081Z,14.80
2024-03-03T10:23:07.141Z,15.20
2024-03-03T10:25:34.474Z,15.50
2024-03-03T10:28:16.830Z,15.60
2024-03-03T10:30:44.180Z,15.40
2024-03-03T10:33:11.862Z,15.20
2024-03-03T10:35:38.574Z,15.90
2024-03-03T10:38:06.338Z,15.80
2024-03-03T10:40:33.673Z,15.60
2024-03-03T10:43:00.709Z,15.20
2024-03-03T10:45:27.546Z,15.50
2024-03-03T10:47:54.337Z,15.90
2024-03-03T10:50:22.926Z,15.70
2024-03-03T10:52:51.120Z,15.40
2024-03-03T10:55:17.840Z,15.60
2024-03-03T10:57:45.230Z,16.00
2024-03-03T11:00:23.547Z,15.70
2024-03-03T11:02:52.444Z,15.90
2024-03-03T11:05:20.885Z,16.00
2024-03-03T11:07:48.771Z,16.00
2024-03-03T11:10:16.238Z,16.10
2024-03-03T11:12:47.173Z,15.90
2024-03-03T11:15:19.106Z,16.10
2024-03-03T11:18:00.550Z,15.70
2024-03-03T11:20:34.367Z,16.70
2024-03-03T11:23:14.940Z,16.30
2024-03-03T11:25:55.847Z,16.30
2024-03-03T11:28:25.614Z,17.10
2024-03-03T11:30:52.709Z,17.10
2024-03-03T11:33:20.137Z,17.10
2024-03-03T11:35:47.992Z,17.60
2024-03-03T11:38:15.454Z,17.30
2024-03-03T11:40:42.503Z,16.90
2024-03-03T11:43:11.815Z,16.80
2024-03-03T11:45:44.011Z,16.70
2024-03-03T11:48:15.120Z,17.40
2024-03-03T11:50:43.157Z,17.40
2024-03-03T11:53:10.716Z,17.80
2024-03-03T11:55:42.152Z,17.30
2024-03-03T11:58:09.467Z,17.60
2024-03-03T12:00:40.621Z,17.90
2024-03-03T12:03:07.412Z,17.80
2024-03-03T12:05:34.151Z,18.20
2024-03-03T12:08:01.623Z,17.70
2024-03-03T12:10:31.596Z,18.00
2024-03-03T12:13:00.141Z,18.00
2024-03-03T12:15:28.899Z,18.80
2024-03-03T12:17:59.547Z,18.30
2024-03-03T12:20:27.541Z,18.10
2024-03-03T12:22:58.381Z,18.00
2024-03-03T12:25:26.223Z,18.00
2024-03-03T12:27:57.781Z,17.50
2024-03-03T12:30:37.113Z,18.00
2024-03-03T12:33:07.461Z,17.60
2024-03-03T12:35:35.913Z,17.30
2024-03-03T12:38:02.965Z,17.60
2024-03-03T12:40:29.605Z,17.40
2024-03-03T12:42:56.570Z,17.80
2024-03-03T12:45:23.283Z,18.20
2024-03-03T12:47:50.832Z,18.00
2024-03-03T12:50:20.088Z,17.70
2024-03-03T12:52:47.312Z,17.50
2024-03-03T12:55:15.782Z,17.80
2024-03-03T12:57:44.872Z,18.00
2024-03-03T13:00:15.652Z,17.80
2024-03-03T13:02:44.184Z,17.40
2024-03-03T13:05:17.082Z,17.00
2024-03-03T13:07:51.265Z,17.40
2024-03-03T13:10:25.245Z,17.70
2024-03-03T13:12:53.602Z,17.80
2024-03-03T13:15:22.028Z,17.80
2024-03-03T13:18:15.471Z,17.90
2024-03-03T13:20:42.890Z,18.70
2024-03-03T13:23:14.430Z,18.20
2024-03-03T13:25:43.888Z,17.70
2024-03-03T13:28:15.408Z,17.90
2024-03-03T13:30:43.328Z,18.30
2024-03-03T13:33:10.533Z,18.50
2024-03-03T13:35:37.472Z,18.80
2024-03-03T13:38:04.279Z,19.00
2024-03-03T13:40:31.366Z,18.40
2024-03-03T13:42:58.009Z,18.10
2024-03-03T13:45:25.856Z,18.70
2024-03-03T13:47:52.924Z,18.60
2024-03-03T13:50:19.892Z,18.80
2024-03-03T13:52:46.684Z,18.90
2024-03-03T13:55:13.691Z,18.70
2024-03-03T13:57:40.361Z,18.50
2024-03-03T14:00:15.803Z,18.30
2024-03-03T14:02:45.327Z,18.50
2024-03-03T14:05:13.487Z,18.50
2024-03-03T14:07:44.039Z,18.50
2024-03-03T14:10:12.321Z,18.70
2024-03-03T14:12:38.880Z,18.60
2024-03-03T14:15:06.772Z,18.70
2024-03-03T14:17:34.419Z,18.70
2024-03-03T14:20:01.350Z,18.70
2024-03-03T14:22:28.036Z,18.50
2024-03-03T14:24:55.291Z,18.30
2024-03-03T14:27:21.851Z,18.50
2024-03-03T14:29:48.391Z,18.30
2024-03-03T14:32:15.287Z,18.70
2024-03-03T14:34:41.788Z,18.90
2024-03-03T14:37:08.871Z,18.70
2024-03-03T14:39:35.734Z,18.60
2024-03-03T14:42:02.273Z,18.60
2024-03-03T14:44:28.854Z,18.80
2024-03-03T14:46:55.713Z,18.80
2024-03-03T14:49:22.343Z,18.80
2024-03-03T14:51:49.615Z,18.70
2024-03-03T14:54:16.428Z,18.80
2024-03-03T14:56:43.963Z,19.00
2024-03-03T14:59:10.605Z,19.30
2024-03-03T15:01:37.438Z,19.00
2024-03-03T15:04:05.613Z,18.80
2024-03-03T15:06:32.192Z,18.50
2024-03-03T15:08:59.087Z,18.50
2024-03-03T15:11:25.709Z,18.50
2024-03-03T15:13:52.258Z,18.80
2024-03-03T15:16:20.233Z,19.10
2024-03-03T15:18:46.823Z,18.90
2024-03-03T15:21:13.329Z,18.70
2024-03-03T15:23:41.502Z,18.90
2024-03-03T15:26:08.571Z,19.30
2024-03-03T15:28:35.136Z,19.30
2024-03-03T15:31:03.599Z,19.40
2024-03-03T15:33:31.374Z,18.80
2024-03-03T15:35:59.578Z,18.70
2024-03-03T15:38:29.206Z,18.70
2024-03-03T15:40:55.702Z,18.70
2024-03-03T15:43:22.881Z,18.80
2024-03-03T15:45:50.127Z,18.80
2024-03-03T15:48:17.352Z,19.10
2024-03-03T15:50:44.185Z,18.60
2024-03-03T15:53:11.506Z,18.50
2024-03-03T15:55:39.231Z,18.30
2024-03-03T15:58:06.296Z,18.50
2024-03-03T16:00:33.617Z,18.50
2024-03-03T16:03:03.507Z,18.70
2024-03-03T16:05:32.399Z,18.40
2024-03-03T16:08:00.086Z,18.30
2024-03-03T16:10:27.002Z,18.20
2024-03-03T16:12:53.804Z,18.30
2024-03-03T16:15:23.485Z,18.50
2024-03-03T16:17:50.494Z,18.60
2024-03-03T16:20:18.269Z,18.70
2024-03-03T16:22:45.291Z,18.70
2024-03-03T16:25:11.834Z,18.70
2024-03-03T16:27:38.842Z,18.70
2024-03-03T16:30:08.118Z,18.90
2024-03-03T16:32:34.719Z,18.70
2024-03-03T16:35:01.473Z,18.50
2024-03-03T16:37:28.269Z,18.20
2024-03-03T16:39:56.625Z,18.10
2024-03-03T16:42:23.253Z,17.80
2024-03-03T16:44:50.631Z,17.60
2024-03-03T16:47:17.180Z,17.50
2024-03-03T16:49:43.844Z,17.30
2024-03-03T16:52:10.833Z,17.00
2024-03-03T16:54:39.489Z,17.00
2024-03-03T16:57:06.807Z,16.80
2024-03-03T16:59:34.905Z,16.60
2024-03-03T17:02:10.916Z,16.40
2024-03-03T17:04:43.094Z,16.30
2024-03-03T17:07:10.466Z,16.10
2024-03-03T17:09:38.047Z,16.00
2024-03-03T17:12:05.609Z,15.80
2024-03-03T17:14:35.046Z,15.70
2024-03-03T17:17:01.635Z,15.50
2024-03-03T17:19:28.486Z,15.30
2024-03-03T17:21:55.191Z,15.10
2024-03-03T17:24:21.824Z,14.80
2024-03-03T17:26:48.624Z,14.60
2024-03-03T17:29:15.191Z,14.40
2024-03-03T17:31:45.148Z,14.30
2024-03-03T17:34:12.661Z,14.10
2024-03-03T17:36:40.326Z,13.90
2024-03-03T17:39:08.350Z,13.80
2024-03-03T17:41:35.341Z,13.70
2024-03-03T17:44:01.880Z,13.60
2024-03-03T17:46:28.646Z,13.60
2024-03-03T17:48:58.006Z,13.50
2024-03-03T17:51:24.588Z,13.40
2024-03-03T17:53:51.126Z,13.40
2024-03-03T17:56:17.929Z,13.30
2024-03-03T17:58:44.499Z,13.20
2024-03-03T18:01:11.166Z,13.20
2024-03-03T18:03:38.500Z,13.20
2024-03-03T18:06:06.230Z,13.10
2024-03-03T18:08:36.398Z,13.00
2024-03-03T18:11:03.792Z,12.90
2024-03-03T18:13:30.665Z,12.80
2024-03-03T18:16:06.146Z,12.80
2024-03-03T18:18:33.016Z,12.70
2024-03-03T18:21:01.089Z,12.60
2024-03-03T18:23:31.716Z,12.50
2024-03-03T18:26:02.181Z,12.50
2024-03-03T18:28:30.183Z,12.50
2024-03-03T18:30:57.700Z,12.50
2024-03-03T18:33:24.976Z,12.50
2024-03-03T18:35:53.340Z,12.50
2024-03-03T18:38:20.122Z,12.50
2024-03-03T18:40:46.969Z,12.60
2024-03-03T18:43:14.773Z,12.60
2024-03-03T18:45:41.356Z,12.60
2024-03-03T18:48:10.620Z,12.60
2024-03-03T18:50:37.134Z,12.50
2024-03-03T18:53:03.903Z,12.50
2024-03-03T18:55:31.546Z,12.50
2024-03-03T18:57:58.493Z,12.40
2024-03-03T19:00:25.115Z,12.40
2024-03-03T19:02:52.744Z,12.40
2024-03-03T19:05:21.532Z,12.30
2024-03-03T19:07:49.244Z,12.20
2024-03-03T19:10:16.413Z,12.10
2024-03-03T19:12:44.291Z,12.00
2024-03-03T19:15:11.110Z,12.00
2024-03-03T19:17:38.820Z,11.90
2024-03-03T19:20:06.072Z,11.90
2024-03-03T19:22:32.614Z,11.90
2024-03-03T19:25:01.267Z,11.80
2024-03-03T19:27:28.571Z,11.80
2024-03-03T19:29:56.869Z,11.70
2024-03-03T19:32:24.294Z,11.70
2024-03-03T19:34:50.876Z,11.60
2024-03-03T19:37:17.436Z,11.60
2024-03-03T19:39:44.426Z,11.60
2024-03-03T19:42:11.087Z,11.70
2024-03-03T19:44:37.627Z,11.80
2024-03-03T19:47:05.920Z,11.80
2024-03-03T19:49:32.961Z,11.90
2024-03-03T19:51:59.931Z,11.90
2024-03-03T19:54:27.020Z,11.90
2024-03-03T19:56:53.844Z,11.80
2024-03-03T19:59:20.514Z,11.80
2024-03-03T20:01:48.413Z,11.70
2024-03-03T20:04:15.329Z,11.60
2024-03-03T20:06:42.878Z,11.60
2024-03-03T20:09:11.597Z,11.50
2024-03-03T20:11:42.004Z,11.50
2024-03-03T20:14:08.636Z,11.50
2024-03-03T20:16:35.442Z,11.50
2024-03-03T20:19:02.159Z,11.50
2024-03-03T20:21:28.811Z,11.60
2024-03-03T20:23:58.651Z,11.70
2024-03-03T20:26:25.242Z,11.90
2024-03-03T20:28:51.801Z,11.90
2024-03-03T20:31:22.406Z,12.00
2024-03-03T20:33:49.719Z,11.90
2024-03-03T20:36:17.184Z,11.90
2024-03-03T20:38:43.930Z,11.90
2024-03-03T20:41:10.642Z,11.80
2024-03-03T20:43:40.865Z,11.80
2024-03-03T20:46:07.729Z,11.80
2024-03-03T20:48:34.746Z,11.80
2024-03-03T20:51:01.261Z,11.70
2024-03-03T20:53:28.274Z,11.60
2024-03-03T20:55:54.771Z,11.60
2024-03-03T20:58:21.353Z,11.70
2024-03-03T21:00:48.178Z,11.70
2024-03-03T21:03:14.802Z,11.70
2024-03-03T21:05:41.655Z,11.60
2024-03-03T21:08:10.444Z,11.50
2024-03-03T21:10:37.336Z,11.50
2024-03-03T21:13:04.551Z,11.40
2024-03-03T21:15:31.435Z,11.30
2024-03-03T21:17:58.577Z,11.30
2024-03-03T21:20:27.391Z,11.30
2024-03-03T21:22:54.478Z,11.20
2024-03-03T21:25:21.394Z,11.40
2024-03-03T21:27:50.638Z,11.50
2024-03-03T21:30:19.431Z,11.50
2024-03-03T21:32:46.317Z,11.50
2024-03-03T21:35:12.883Z,11.40
2024-03-03T21:37:39.816Z,11.30
2024-03-03T21:40:06.999Z,11.20
2024-03-03T21:42:33.554Z,11.30
2024-03-03T21:45:00.357Z,11.30
2024-03-03T21:47:27.444Z,11.20
2024-03-03T21:49:54.240Z,11.30
2024-03-03T21:52:21.362Z,11.30
2024-03-03T21:54:49.403Z,11.40
2024-03-03T21:57:16.006Z,11.50
2024-03-03T21:59:43.991Z,11.50
2024-03-03T22:02:11.058Z,11.70
2024-03-03T22:04:39.175Z,11.80
2024-03-03T22:07:06.386Z,11.90
2024-03-03T22:09:32.995Z,11.90
2024-03-03T22:12:00.050Z,12.00
2024-03-03T22:14:27.340Z,12.00
2024-03-03T22:16:53.969Z,12.00
2024-03-03T22:19:22.349Z,11.90
2024-03-03T22:21:49.197Z,12.10
2024-03-03T22:24:15.957Z,12.10
2024-03-03T22:26:43.381Z,12.00
2024-03-03T22:29:10.661Z,12.10
2024-03-03T22:31:38.197Z,12.10
2024-03-03T22:34:05.109Z,12.10
2024-03-03T22:36:31.946Z,12.20
2024-03-03T22:38:58.554Z,12.30
2024-03-03T22:41:27.229Z,12.30
2024-03-03T22:43:54.188Z,12.30
2024-03-03T22:46:22.996Z,12.40
2024-03-03T22:48:49.770Z,12.40
2024-03-03T22:51:16.568Z,12.40
2024-03-03T22:53:43.150Z,12.40
2024-03-03T22:56:09.825Z,12.30
2024-03-03T22:58:37.658Z,12.30
2024-03-03T23:01:04.719Z,12.20
2024-03-03T23:03:31.273Z,12.20
2024-03-03T23:05:58.596Z,12.20
2024-03-03T23:08:25.323Z,12.10
2024-03-03T23:10:51.979Z,12.10
2024-03-03T23:13:19.361Z,12.00
2024-03-03T23:15:47.041Z,12.00
2024-03-03T23:18:18.754Z,11.90
2024-03-03T23:20:46.486Z,11.80
2024-03-03T23:23:16.105Z,11.80
2024-03-03T23:25:42.776Z,11.70
2024-03-03T23:28:10.846Z,11.70
2024-03-03T23:30:37.360Z,11.70
2024-03-03T23:33:04.873Z,11.70
2024-03-03T23:35:32.693Z,11.60
2024-03-03T23:37:59.960Z,11.60
2024-03-03T23:40:26.552Z,11.50
2024-03-03T23:42:53.685Z,11.50
2024-03-03T23:45:20.559Z,11.40
2024-03-03T23:47:47.118Z,11.40
2024-03-03T23:50:13.951Z,11.40
2024-03-03T23:52:40.706Z,11.40
2024-03-03T23:55:07.913Z,11.40
2024-03-03T23:57:34.706Z,11.30
